sensor_id;sensor_type;location;lat;lon;timestamp;P1;durP1;ratioP1;P2;durP2;ratioP2
22060;SDS011;11194;48.092;-1.382;2023-02-28T00:01:20;11.32;;;6.20;;
22060;SDS011;11194;48.092;-1.382;2023-02-28T00:03:46;10.93;;;5.55;;
22060;SDS011;11194;48.092;-1.382;2023-02-28T00:06:12;11.05;;;6.22;;
22060;SDS011;11194;48.092;-1.382;2023-02-28T00:08:38;9.85;;;6.43;;
22060;SDS011;11194;48.092;-1.382;2023-02-28T00:11:05;14.93;;;7.07;;
22060;SDS011;11194;48.092;-1.382;2023-02-28T00:13:31;9.93;;;6.50;;
22060;SDS011;11194;48.092;-1.382;2023-02-28T00:16:02;15.25;;;7.63;;
22060;SDS011;11194;48.092;-1.382;2023-02-28T00:18:28;15.57;;;8.25;;
22060;SDS011;11194;48.092;-1.382;2023-02-28T00:20:54;11.27;;;6.68;;
22060;SDS011;11194;48.092;-1.382;2023-02-28T00:23:21;14.55;;;7.30;;
22060;SDS011;11194;48.092;-1.382;2023-02-28T00:25:47;12.52;;;7.35;;
22060;SDS011;11194;48.092;-1.382;2023-02-28T00:28:14;12.60;;;6.95;;
22060;SDS011;11194;48.092;-1.382;2023-02-28T00:30:40;12.45;;;5.90;;
22060;SDS011;11194;48.092;-1.382;2023-02-28T00:33:06;13.25;;;6.38;;
22060;SDS011;11194;48.092;-1.382;2023-02-28T00:35:32;12.13;;;6.75;;
22060;SDS011;11194;48.092;-1.382;2023-02-28T00:37:58;10.98;;;6.10;;
22060;SDS011;11194;48.092;-1.382;2023-02-28T00:40:24;14.32;;;7.35;;
22060;SDS011;11194;48.092;-1.382;2023-02-28T00:42:50;14.32;;;6.82;;
22060;SDS011;11194;48.092;-1.382;2023-02-28T00:45:16;12.00;;;6.70;;
22060;SDS011;11194;48.092;-1.382;2023-02-28T00:47:42;10.20;;;6.05;;
22060;SDS011;11194;48.092;-1.382;2023-02-28T00:50:09;10.32;;;5.47;;
22060;SDS011;11194;48.092;-1.382;2023-02-28T00:52:35;13.02;;;6.05;;
22060;SDS011;11194;48.092;-1.382;2023-02-28T00:55:01;9.45;;;6.00;;
22060;SDS011;11194;48.092;-1.382;2023-02-28T00:57:27;10.93;;;6.03;;
22060;SDS011;11194;48.092;-1.382;2023-02-28T00:59:53;13.57;;;5.95;;
22060;SDS011;11194;48.092;-1.382;2023-02-28T01:02:20;10.77;;;5.13;;
22060;SDS011;11194;48.092;-1.382;2023-02-28T01:04:46;10.07;;;5.10;;
22060;SDS011;11194;48.092;-1.382;2023-02-28T01:07:12;9.25;;;5.05;;
22060;SDS011;11194;48.092;-1.382;2023-02-28T01:09:39;9.73;;;5.65;;
22060;SDS011;11194;48.092;-1.382;2023-02-28T01:12:06;9.13;;;4.95;;
22060;SDS011;11194;48.092;-1.382;2023-02-28T01:14:32;9.82;;;5.13;;
22060;SDS011;11194;48.092;-1.382;2023-02-28T01:16:59;10.45;;;5.00;;
22060;SDS011;11194;48.092;-1.382;2023-02-28T01:19:25;11.35;;;5.38;;
22060;SDS011;11194;48.092;-1.382;2023-02-28T01:21:51;13.38;;;5.90;;
22060;SDS011;11194;48.092;-1.382;2023-02-28T01:24:17;9.40;;;5.82;;
22060;SDS011;11194;48.092;-1.382;2023-02-28T01:26:44;11.70;;;5.93;;
22060;SDS011;11194;48.092;-1.382;2023-02-28T01:29:10;8.52;;;4.90;;
22060;SDS011;11194;48.092;-1.382;2023-02-28T01:31:36;11.55;;;5.43;;
22060;SDS011;11194;48.092;-1.382;2023-02-28T01:34:02;9.25;;;5.20;;
22060;SDS011;11194;48.092;-1.382;2023-02-28T01:36:28;9.05;;;4.70;;
22060;SDS011;11194;48.092;-1.382;2023-02-28T01:38:55;9.35;;;4.80;;
22060;SDS011;11194;48.092;-1.382;2023-02-28T01:41:32;10.80;;;5.35;;
22060;SDS011;11194;48.092;-1.382;2023-02-28T01:44:53;9.82;;;5.60;;
22060;SDS011;11194;48.092;-1.382;2023-02-28T01:46:52;10.27;;;4.97;;
22060;SDS011;11194;48.092;-1.382;2023-02-28T01:49:18;14.40;;;5.97;;
22060;SDS011;11194;48.092;-1.382;2023-02-28T01:51:45;10.15;;;5.75;;
22060;SDS011;11194;48.092;-1.382;2023-02-28T01:54:29;8.30;;;5.32;;
22060;SDS011;11194;48.092;-1.382;2023-02-28T01:57:01;10.65;;;5.57;;
22060;SDS011;11194;48.092;-1.382;2023-02-28T01:59:29;10.73;;;5.63;;
22060;SDS011;11194;48.092;-1.382;2023-02-28T02:01:58;10.40;;;5.50;;
22060;SDS011;11194;48.092;-1.382;2023-02-28T02:04:26;9.65;;;5.22;;
22060;SDS011;11194;48.092;-1.382;2023-02-28T02:06:52;11.07;;;5.72;;
22060;SDS011;11194;48.092;-1.382;2023-02-28T02:09:18;8.15;;;5.13;;
22060;SDS011;11194;48.092;-1.382;2023-02-28T02:11:44;11.20;;;5.20;;
22060;SDS011;11194;48.092;-1.382;2023-02-28T02:27:38;12.85;;;5.80;;
22060;SDS011;11194;48.092;-1.382;2023-02-28T05:02:20;19.63;;;9.55;;
22060;SDS011;11194;48.092;-1.382;2023-02-28T05:04:46;16.85;;;10.45;;
22060;SDS011;11194;48.092;-1.382;2023-02-28T05:07:12;15.32;;;9.55;;
22060;SDS011;11194;48.092;-1.382;2023-02-28T05:09:38;18.10;;;9.77;;
22060;SDS011;11194;48.092;-1.382;2023-02-28T05:12:04;13.98;;;9.52;;
22060;SDS011;11194;48.092;-1.382;2023-02-28T05:14:31;15.50;;;9.43;;
22060;SDS011;11194;48.092;-1.382;2023-02-28T05:16:57;16.80;;;10.68;;
22060;SDS011;11194;48.092;-1.382;2023-02-28T05:19:23;17.73;;;11.18;;
22060;SDS011;11194;48.092;-1.382;2023-02-28T05:21:50;19.85;;;10.23;;
22060;SDS011;11194;48.092;-1.382;2023-02-28T05:24:17;15.80;;;9.95;;
22060;SDS011;11194;48.092;-1.382;2023-02-28T05:26:49;16.63;;;10.13;;
22060;SDS011;11194;48.092;-1.382;2023-02-28T05:29:16;18.15;;;10.63;;
22060;SDS011;11194;48.092;-1.382;2023-02-28T05:31:42;18.88;;;11.63;;
22060;SDS011;11194;48.092;-1.382;2023-02-28T05:34:08;20.15;;;11.70;;
22060;SDS011;11194;48.092;-1.382;2023-02-28T05:36:37;18.27;;;10.35;;
22060;SDS011;11194;48.092;-1.382;2023-02-28T05:39:04;17.05;;;11.70;;
22060;SDS011;11194;48.092;-1.382;2023-02-28T05:41:30;17.23;;;11.40;;
22060;SDS011;11194;48.092;-1.382;2023-02-28T05:43:57;20.27;;;11.80;;
22060;SDS011;11194;48.092;-1.382;2023-02-28T05:46:24;17.92;;;10.90;;
22060;SDS011;11194;48.092;-1.382;2023-02-28T05:48:50;16.92;;;11.48;;
22060;SDS011;11194;48.092;-1.382;2023-02-28T05:51:16;18.33;;;10.27;;
22060;SDS011;11194;48.092;-1.382;2023-02-28T05:53:43;17.02;;;10.90;;
22060;SDS011;11194;48.092;-1.382;2023-02-28T05:56:09;17.17;;;12.15;;
22060;SDS011;11194;48.092;-1.382;2023-02-28T05:58:35;18.13;;;12.05;;
22060;SDS011;11194;48.092;-1.382;2023-02-28T06:01:18;17.75;;;10.85;;
22060;SDS011;11194;48.092;-1.382;2023-02-28T06:03:45;19.67;;;12.40;;
22060;SDS011;11194;48.092;-1.382;2023-02-28T06:06:11;21.83;;;12.77;;
22060;SDS011;11194;48.092;-1.382;2023-02-28T06:08:37;19.55;;;11.88;;
22060;SDS011;11194;48.092;-1.382;2023-02-28T06:11:03;21.17;;;11.35;;
22060;SDS011;11194;48.092;-1.382;2023-02-28T06:13:30;20.92;;;12.85;;
22060;SDS011;11194;48.092;-1.382;2023-02-28T06:15:56;22.67;;;12.95;;
22060;SDS011;11194;48.092;-1.382;2023-02-28T06:18:22;23.70;;;13.45;;
22060;SDS011;11194;48.092;-1.382;2023-02-28T06:20:54;17.65;;;11.93;;
22060;SDS011;11194;48.092;-1.382;2023-02-28T06:23:20;21.20;;;12.23;;
22060;SDS011;11194;48.092;-1.382;2023-02-28T06:25:47;18.20;;;12.55;;
22060;SDS011;11194;48.092;-1.382;2023-02-28T06:28:14;21.38;;;12.63;;
22060;SDS011;11194;48.092;-1.382;2023-02-28T06:30:40;26.15;;;13.38;;
22060;SDS011;11194;48.092;-1.382;2023-02-28T06:33:06;23.23;;;12.75;;
22060;SDS011;11194;48.092;-1.382;2023-02-28T06:35:32;23.40;;;14.63;;
22060;SDS011;11194;48.092;-1.382;2023-02-28T06:37:58;25.48;;;14.05;;
22060;SDS011;11194;48.092;-1.382;2023-02-28T06:40:25;22.48;;;13.35;;
22060;SDS011;11194;48.092;-1.382;2023-02-28T06:42:51;19.85;;;12.50;;
22060;SDS011;11194;48.092;-1.382;2023-02-28T06:45:17;21.40;;;13.75;;
22060;SDS011;11194;48.092;-1.382;2023-02-28T06:47:43;24.73;;;15.18;;
22060;SDS011;11194;48.092;-1.382;2023-02-28T06:50:11;23.75;;;14.88;;
22060;SDS011;11194;48.092;-1.382;2023-02-28T06:52:37;25.13;;;15.00;;
22060;SDS011;11194;48.092;-1.382;2023-02-28T06:55:05;28.55;;;14.20;;
22060;SDS011;11194;48.092;-1.382;2023-02-28T06:57:32;23.08;;;14.02;;
22060;SDS011;11194;48.092;-1.382;2023-02-28T07:00:03;26.02;;;14.88;;
22060;SDS011;11194;48.092;-1.382;2023-02-28T07:02:30;24.25;;;13.93;;
22060;SDS011;11194;48.092;-1.382;2023-02-28T07:04:56;27.20;;;14.38;;
22060;SDS011;11194;48.092;-1.382;2023-02-28T07:07:22;24.58;;;14.10;;
22060;SDS011;11194;48.092;-1.382;2023-02-28T07:09:48;24.95;;;15.43;;
22060;SDS011;11194;48.092;-1.382;2023-02-28T07:12:14;27.55;;;16.73;;
22060;SDS011;11194;48.092;-1.382;2023-02-28T07:14:41;24.33;;;14.98;;
22060;SDS011;11194;48.092;-1.382;2023-02-28T07:17:10;25.70;;;13.73;;
22060;SDS011;11194;48.092;-1.382;2023-02-28T07:19:37;21.38;;;12.85;;
22060;SDS011;11194;48.092;-1.382;2023-02-28T07:22:04;25.80;;;13.57;;
22060;SDS011;11194;48.092;-1.382;2023-02-28T07:24:30;19.42;;;11.35;;
22060;SDS011;11194;48.092;-1.382;2023-02-28T07:26:56;21.23;;;13.27;;
22060;SDS011;11194;48.092;-1.382;2023-02-28T07:29:22;21.48;;;13.50;;
22060;SDS011;11194;48.092;-1.382;2023-02-28T07:31:48;24.08;;;13.52;;
22060;SDS011;11194;48.092;-1.382;2023-02-28T07:34:17;25.92;;;15.35;;
22060;SDS011;11194;48.092;-1.382;2023-02-28T07:36:44;22.25;;;13.30;;
22060;SDS011;11194;48.092;-1.382;2023-02-28T07:39:10;24.15;;;13.45;;
22060;SDS011;11194;48.092;-1.382;2023-02-28T07:41:36;20.52;;;11.27;;
22060;SDS011;11194;48.092;-1.382;2023-02-28T07:44:08;24.90;;;13.95;;
22060;SDS011;11194;48.092;-1.382;2023-02-28T07:46:34;21.92;;;12.20;;
22060;SDS011;11194;48.092;-1.382;2023-02-28T07:49:01;19.60;;;11.68;;
22060;SDS011;11194;48.092;-1.382;2023-02-28T07:51:28;26.13;;;13.27;;
22060;SDS011;11194;48.092;-1.382;2023-02-28T07:53:54;23.95;;;13.90;;
22060;SDS011;11194;48.092;-1.382;2023-02-28T07:56:20;24.20;;;12.93;;
22060;SDS011;11194;48.092;-1.382;2023-02-28T07:58:46;22.00;;;11.80;;
22060;SDS011;11194;48.092;-1.382;2023-02-28T08:01:13;20.60;;;11.27;;
22060;SDS011;11194;48.092;-1.382;2023-02-28T08:03:39;24.98;;;12.05;;
22060;SDS011;11194;48.092;-1.382;2023-02-28T08:06:07;21.30;;;11.98;;
22060;SDS011;11194;48.092;-1.382;2023-02-28T08:08:33;20.80;;;12.65;;
22060;SDS011;11194;48.092;-1.382;2023-02-28T08:10:59;22.08;;;12.82;;
22060;SDS011;11194;48.092;-1.382;2023-02-28T08:13:26;22.77;;;12.98;;
22060;SDS011;11194;48.092;-1.382;2023-02-28T08:15:53;20.55;;;12.07;;
22060;SDS011;11194;48.092;-1.382;2023-02-28T08:18:19;24.27;;;13.48;;
22060;SDS011;11194;48.092;-1.382;2023-02-28T08:20:46;19.42;;;11.95;;
22060;SDS011;11194;48.092;-1.382;2023-02-28T08:23:12;18.85;;;12.05;;
22060;SDS011;11194;48.092;-1.382;2023-02-28T08:25:38;21.70;;;12.98;;
22060;SDS011;11194;48.092;-1.382;2023-02-28T08:28:04;22.25;;;12.50;;
22060;SDS011;11194;48.092;-1.382;2023-02-28T08:30:30;19.95;;;12.02;;
22060;SDS011;11194;48.092;-1.382;2023-02-28T08:32:56;19.90;;;11.20;;
22060;SDS011;11194;48.092;-1.382;2023-02-28T08:35:23;22.08;;;12.57;;
22060;SDS011;11194;48.092;-1.382;2023-02-28T08:37:49;23.75;;;10.90;;
22060;SDS011;11194;48.092;-1.382;2023-02-28T08:40:15;20.08;;;11.93;;
22060;SDS011;11194;48.092;-1.382;2023-02-28T08:42:46;24.30;;;13.43;;
22060;SDS011;11194;48.092;-1.382;2023-02-28T08:45:13;22.30;;;12.57;;
22060;SDS011;11194;48.092;-1.382;2023-02-28T08:47:40;20.63;;;11.88;;
22060;SDS011;11194;48.092;-1.382;2023-02-28T08:50:06;21.85;;;11.75;;
22060;SDS011;11194;48.092;-1.382;2023-02-28T08:52:33;22.00;;;12.15;;
22060;SDS011;11194;48.092;-1.382;2023-02-28T08:54:59;20.42;;;11.95;;
22060;SDS011;11194;48.092;-1.382;2023-02-28T08:57:25;21.65;;;12.05;;
22060;SDS011;11194;48.092;-1.382;2023-02-28T08:59:52;20.25;;;11.00;;
22060;SDS011;11194;48.092;-1.382;2023-02-28T09:02:18;20.35;;;10.80;;
22060;SDS011;11194;48.092;-1.382;2023-02-28T09:04:44;20.38;;;11.52;;
22060;SDS011;11194;48.092;-1.382;2023-02-28T09:07:11;17.98;;;9.98;;
22060;SDS011;11194;48.092;-1.382;2023-02-28T09:09:37;21.30;;;11.70;;
22060;SDS011;11194;48.092;-1.382;2023-02-28T09:12:18;17.75;;;10.90;;
22060;SDS011;11194;48.092;-1.382;2023-02-28T09:14:44;20.20;;;10.57;;
22060;SDS011;11194;48.092;-1.382;2023-02-28T09:17:10;20.63;;;10.65;;
22060;SDS011;11194;48.092;-1.382;2023-02-28T09:19:36;15.82;;;9.15;;
22060;SDS011;11194;48.092;-1.382;2023-02-28T09:22:02;12.93;;;8.20;;
22060;SDS011;11194;48.092;-1.382;2023-02-28T09:24:28;17.25;;;9.98;;
22060;SDS011;11194;48.092;-1.382;2023-02-28T09:26:56;19.52;;;9.63;;
22060;SDS011;11194;48.092;-1.382;2023-02-28T09:29:22;18.10;;;9.80;;
22060;SDS011;11194;48.092;-1.382;2023-02-28T09:31:48;15.48;;;9.05;;
22060;SDS011;11194;48.092;-1.382;2023-02-28T09:34:15;15.48;;;9.05;;
22060;SDS011;11194;48.092;-1.382;2023-02-28T09:36:42;15.13;;;8.07;;
22060;SDS011;11194;48.092;-1.382;2023-02-28T09:39:08;13.40;;;7.78;;
22060;SDS011;11194;48.092;-1.382;2023-02-28T09:41:39;10.77;;;6.30;;
22060;SDS011;11194;48.092;-1.382;2023-02-28T09:44:13;13.02;;;6.80;;
22060;SDS011;11194;48.092;-1.382;2023-02-28T09:46:45;14.88;;;8.05;;
22060;SDS011;11194;48.092;-1.382;2023-02-28T09:49:14;15.27;;;7.95;;
22060;SDS011;11194;48.092;-1.382;2023-02-28T09:51:51;16.05;;;8.32;;
22060;SDS011;11194;48.092;-1.382;2023-02-28T09:54:21;13.60;;;7.82;;
22060;SDS011;11194;48.092;-1.382;2023-02-28T10:04:56;12.48;;;7.03;;
22060;SDS011;11194;48.092;-1.382;2023-02-28T10:09:52;10.57;;;6.20;;
22060;SDS011;11194;48.092;-1.382;2023-02-28T10:12:18;11.07;;;6.70;;
22060;SDS011;11194;48.092;-1.382;2023-02-28T10:14:46;11.38;;;6.35;;
22060;SDS011;11194;48.092;-1.382;2023-02-28T10:17:17;9.43;;;4.57;;
22060;SDS011;11194;48.092;-1.382;2023-02-28T10:22:12;12.95;;;6.32;;
22060;SDS011;11194;48.092;-1.382;2023-02-28T10:24:47;8.32;;;5.32;;
22060;SDS011;11194;48.092;-1.382;2023-02-28T10:29:40;9.15;;;5.40;;
22060;SDS011;11194;48.092;-1.382;2023-02-28T10:32:08;8.85;;;4.88;;
22060;SDS011;11194;48.092;-1.382;2023-02-28T10:34:35;9.07;;;5.32;;
22060;SDS011;11194;48.092;-1.382;2023-02-28T10:37:02;8.45;;;4.80;;
22060;SDS011;11194;48.092;-1.382;2023-02-28T10:42:02;10.18;;;6.25;;
22060;SDS011;11194;48.092;-1.382;2023-02-28T10:44:28;8.55;;;4.97;;
22060;SDS011;11194;48.092;-1.382;2023-02-28T10:46:54;7.68;;;5.10;;
22060;SDS011;11194;48.092;-1.382;2023-02-28T10:49:25;9.20;;;5.30;;
22060;SDS011;11194;48.092;-1.382;2023-02-28T10:51:54;7.82;;;5.65;;
22060;SDS011;11194;48.092;-1.382;2023-02-28T10:54:32;7.25;;;4.63;;
22060;SDS011;11194;48.092;-1.382;2023-02-28T10:59:32;6.00;;;4.10;;
22060;SDS011;11194;48.092;-1.382;2023-02-28T11:01:58;7.43;;;4.28;;
22060;SDS011;11194;48.092;-1.382;2023-02-28T11:07:04;7.10;;;3.40;;
22060;SDS011;11194;48.092;-1.382;2023-02-28T11:09:34;4.45;;;3.03;;
22060;SDS011;11194;48.092;-1.382;2023-02-28T11:12:05;5.40;;;3.72;;
22060;SDS011;11194;48.092;-1.382;2023-02-28T11:14:32;4.22;;;2.75;;
22060;SDS011;11194;48.092;-1.382;2023-02-28T11:17:21;6.70;;;3.80;;
22060;SDS011;11194;48.092;-1.382;2023-02-28T11:19:48;6.38;;;3.90;;
22060;SDS011;11194;48.092;-1.382;2023-02-28T11:22:19;6.43;;;3.50;;
22060;SDS011;11194;48.092;-1.382;2023-02-28T11:24:47;4.50;;;3.10;;
22060;SDS011;11194;48.092;-1.382;2023-02-28T11:29:56;8.15;;;4.47;;
22060;SDS011;11194;48.092;-1.382;2023-02-28T11:32:23;6.05;;;3.30;;
22060;SDS011;11194;48.092;-1.382;2023-02-28T11:37:34;4.97;;;3.50;;
22060;SDS011;11194;48.092;-1.382;2023-02-28T11:40:01;5.53;;;3.40;;
22060;SDS011;11194;48.092;-1.382;2023-02-28T11:42:42;5.68;;;3.80;;
22060;SDS011;11194;48.092;-1.382;2023-02-28T11:52:59;7.13;;;3.95;;
22060;SDS011;11194;48.092;-1.382;2023-02-28T11:58:17;8.10;;;4.57;;
22060;SDS011;11194;48.092;-1.382;2023-02-28T12:26:39;8.45;;;4.63;;
22060;SDS011;11194;48.092;-1.382;2023-02-28T12:29:52;8.27;;;4.70;;
22060;SDS011;11194;48.092;-1.382;2023-02-28T12:32:16;6.40;;;4.45;;
22060;SDS011;11194;48.092;-1.382;2023-02-28T12:34:44;8.65;;;5.25;;
22060;SDS011;11194;48.092;-1.382;2023-02-28T12:37:17;7.93;;;4.65;;
22060;SDS011;11194;48.092;-1.382;2023-02-28T12:39:48;8.73;;;4.75;;
22060;SDS011;11194;48.092;-1.382;2023-02-28T12:42:26;7.72;;;5.22;;
22060;SDS011;11194;48.092;-1.382;2023-02-28T12:44:54;8.85;;;5.45;;
22060;SDS011;11194;48.092;-1.382;2023-02-28T12:47:22;6.57;;;4.30;;
22060;SDS011;11194;48.092;-1.382;2023-02-28T12:49:50;9.05;;;5.03;;
22060;SDS011;11194;48.092;-1.382;2023-02-28T12:52:20;6.28;;;4.00;;
22060;SDS011;11194;48.092;-1.382;2023-02-28T12:57:41;7.57;;;5.43;;
22060;SDS011;11194;48.092;-1.382;2023-02-28T13:00:16;7.68;;;4.80;;
22060;SDS011;11194;48.092;-1.382;2023-02-28T13:10:45;7.80;;;4.50;;
22060;SDS011;11194;48.092;-1.382;2023-02-28T13:13:16;6.18;;;4.53;;
22060;SDS011;11194;48.092;-1.382;2023-02-28T13:15:59;7.13;;;3.38;;
22060;SDS011;11194;48.092;-1.382;2023-02-28T13:18:36;7.30;;;4.28;;
22060;SDS011;11194;48.092;-1.382;2023-02-28T13:21:04;6.25;;;4.18;;
22060;SDS011;11194;48.092;-1.382;2023-02-28T13:26:06;7.25;;;4.53;;
22060;SDS011;11194;48.092;-1.382;2023-02-28T13:31:32;6.63;;;4.07;;
22060;SDS011;11194;48.092;-1.382;2023-02-28T13:34:11;6.10;;;4.43;;
22060;SDS011;11194;48.092;-1.382;2023-02-28T13:36:38;6.45;;;4.32;;
22060;SDS011;11194;48.092;-1.382;2023-02-28T13:41:49;5.07;;;4.13;;
22060;SDS011;11194;48.092;-1.382;2023-02-28T13:44:19;6.47;;;3.45;;
22060;SDS011;11194;48.092;-1.382;2023-02-28T14:07:41;7.43;;;4.15;;
22060;SDS011;11194;48.092;-1.382;2023-02-28T14:10:15;4.60;;;3.47;;
22060;SDS011;11194;48.092;-1.382;2023-02-28T14:12:56;5.15;;;3.72;;
22060;SDS011;11194;48.092;-1.382;2023-02-28T14:15:26;6.78;;;3.40;;
22060;SDS011;11194;48.092;-1.382;2023-02-28T14:17:54;7.40;;;4.53;;
22060;SDS011;11194;48.092;-1.382;2023-02-28T14:20:21;7.57;;;4.00;;
22060;SDS011;11194;48.092;-1.382;2023-02-28T14:25:34;7.35;;;4.20;;
22060;SDS011;11194;48.092;-1.382;2023-02-28T14:31:06;7.68;;;4.22;;
22060;SDS011;11194;48.092;-1.382;2023-02-28T14:38:30;6.68;;;4.80;;
22060;SDS011;11194;48.092;-1.382;2023-02-28T14:40:58;6.35;;;4.50;;
22060;SDS011;11194;48.092;-1.382;2023-02-28T14:43:27;5.90;;;4.40;;
22060;SDS011;11194;48.092;-1.382;2023-02-28T14:45:57;8.02;;;4.88;;
22060;SDS011;11194;48.092;-1.382;2023-02-28T14:48:24;7.07;;;4.90;;
22060;SDS011;11194;48.092;-1.382;2023-02-28T14:50:53;7.55;;;4.53;;
22060;SDS011;11194;48.092;-1.382;2023-02-28T14:53:20;7.82;;;4.90;;
22060;SDS011;11194;48.092;-1.382;2023-02-28T14:55:47;9.90;;;4.60;;
22060;SDS011;11194;48.092;-1.382;2023-02-28T14:58:21;6.53;;;4.95;;
22060;SDS011;11194;48.092;-1.382;2023-02-28T15:00:49;7.90;;;4.60;;
22060;SDS011;11194;48.092;-1.382;2023-02-28T15:03:20;6.78;;;4.85;;
22060;SDS011;11194;48.092;-1.382;2023-02-28T15:05:52;6.93;;;4.70;;
22060;SDS011;11194;48.092;-1.382;2023-02-28T15:08:18;8.20;;;5.70;;
22060;SDS011;11194;48.092;-1.382;2023-02-28T15:11:18;10.10;;;5.43;;
22060;SDS011;11194;48.092;-1.382;2023-02-28T15:13:41;7.97;;;5.25;;
22060;SDS011;11194;48.092;-1.382;2023-02-28T15:24:21;8.38;;;5.85;;
22060;SDS011;11194;48.092;-1.382;2023-02-28T15:26:54;9.18;;;5.47;;
22060;SDS011;11194;48.092;-1.382;2023-02-28T15:29:23;10.27;;;6.05;;
22060;SDS011;11194;48.092;-1.382;2023-02-28T15:34:20;10.85;;;6.32;;
22060;SDS011;11194;48.092;-1.382;2023-02-28T15:36:47;13.35;;;6.13;;
22060;SDS011;11194;48.092;-1.382;2023-02-28T15:39:21;13.70;;;6.63;;
22060;SDS011;11194;48.092;-1.382;2023-02-28T15:41:47;11.52;;;7.10;;
22060;SDS011;11194;48.092;-1.382;2023-02-28T15:44:14;10.13;;;6.13;;
22060;SDS011;11194;48.092;-1.382;2023-02-28T15:46:54;11.07;;;6.65;;
22060;SDS011;11194;48.092;-1.382;2023-02-28T15:49:21;11.40;;;7.65;;
22060;SDS011;11194;48.092;-1.382;2023-02-28T15:51:49;13.65;;;7.97;;
22060;SDS011;11194;48.092;-1.382;2023-02-28T15:54:23;12.88;;;8.23;;
22060;SDS011;11194;48.092;-1.382;2023-02-28T15:56:51;15.73;;;10.48;;
22060;SDS011;11194;48.092;-1.382;2023-02-28T15:59:18;17.52;;;11.65;;
22060;SDS011;11194;48.092;-1.382;2023-02-28T16:01:45;18.30;;;12.10;;
22060;SDS011;11194;48.092;-1.382;2023-02-28T16:04:15;15.40;;;12.50;;
22060;SDS011;11194;48.092;-1.382;2023-02-28T16:06:42;16.20;;;14.50;;
22060;SDS011;11194;48.092;-1.382;2023-02-28T16:09:13;15.43;;;13.10;;
22060;SDS011;11194;48.092;-1.382;2023-02-28T16:11:44;19.17;;;16.92;;
22060;SDS011;11194;48.092;-1.382;2023-02-28T16:14:29;21.45;;;19.13;;
22060;SDS011;11194;48.092;-1.382;2023-02-28T16:16:56;24.95;;;22.55;;
22060;SDS011;11194;48.092;-1.382;2023-02-28T16:19:23;26.30;;;23.70;;
22060;SDS011;11194;48.092;-1.382;2023-02-28T16:21:49;26.63;;;23.45;;
22060;SDS011;11194;48.092;-1.382;2023-02-28T16:24:22;25.15;;;22.02;;
22060;SDS011;11194;48.092;-1.382;2023-02-28T16:33:06;25.98;;;20.63;;
22060;SDS011;11194;48.092;-1.382;2023-02-28T16:35:33;29.45;;;21.13;;
22060;SDS011;11194;48.092;-1.382;2023-02-28T16:41:04;27.63;;;20.60;;
22060;SDS011;11194;48.092;-1.382;2023-02-28T16:43:31;28.85;;;19.15;;
22060;SDS011;11194;48.092;-1.382;2023-02-28T16:45:57;22.15;;;17.77;;
22060;SDS011;11194;48.092;-1.382;2023-02-28T16:48:24;24.25;;;18.50;;
22060;SDS011;11194;48.092;-1.382;2023-02-28T16:50:50;23.83;;;17.77;;
22060;SDS011;11194;48.092;-1.382;2023-02-28T16:53:16;23.70;;;18.45;;
22060;SDS011;11194;48.092;-1.382;2023-02-28T16:55:42;21.08;;;16.88;;
22060;SDS011;11194;48.092;-1.382;2023-02-28T16:58:15;21.83;;;16.98;;
22060;SDS011;11194;48.092;-1.382;2023-02-28T17:00:42;22.15;;;17.23;;
22060;SDS011;11194;48.092;-1.382;2023-02-28T17:03:20;22.08;;;17.80;;
22060;SDS011;11194;48.092;-1.382;2023-02-28T17:05:47;22.63;;;18.10;;
22060;SDS011;11194;48.092;-1.382;2023-02-28T17:08:13;24.45;;;18.33;;
22060;SDS011;11194;48.092;-1.382;2023-02-28T17:10:55;39.78;;;23.50;;
22060;SDS011;11194;48.092;-1.382;2023-02-28T17:13:27;27.02;;;18.98;;
22060;SDS011;11194;48.092;-1.382;2023-02-28T17:16:05;28.65;;;20.33;;
22060;SDS011;11194;48.092;-1.382;2023-02-28T17:18:38;26.55;;;18.17;;
22060;SDS011;11194;48.092;-1.382;2023-02-28T17:21:07;22.42;;;16.85;;
22060;SDS011;11194;48.092;-1.382;2023-02-28T17:26:44;41.80;;;31.17;;
22060;SDS011;11194;48.092;-1.382;2023-02-28T17:29:20;37.42;;;29.05;;
22060;SDS011;11194;48.092;-1.382;2023-02-28T17:32:06;30.52;;;26.10;;
22060;SDS011;11194;48.092;-1.382;2023-02-28T17:34:35;33.33;;;29.35;;
22060;SDS011;11194;48.092;-1.382;2023-02-28T17:43:10;31.25;;;27.95;;
22060;SDS011;11194;48.092;-1.382;2023-02-28T17:45:43;35.17;;;29.05;;
22060;SDS011;11194;48.092;-1.382;2023-02-28T17:48:12;77.25;;;46.58;;
22060;SDS011;11194;48.092;-1.382;2023-02-28T17:50:38;95.57;;;58.50;;
22060;SDS011;11194;48.092;-1.382;2023-02-28T17:53:04;40.85;;;36.50;;
22060;SDS011;11194;48.092;-1.382;2023-02-28T17:55:30;42.58;;;36.72;;
22060;SDS011;11194;48.092;-1.382;2023-02-28T17:57:59;49.45;;;43.17;;
22060;SDS011;11194;48.092;-1.382;2023-02-28T18:00:25;46.42;;;34.28;;
22060;SDS011;11194;48.092;-1.382;2023-02-28T18:02:55;48.08;;;42.80;;
22060;SDS011;11194;48.092;-1.382;2023-02-28T18:05:35;43.55;;;38.72;;
22060;SDS011;11194;48.092;-1.382;2023-02-28T18:11:28;47.13;;;33.65;;
22060;SDS011;11194;48.092;-1.382;2023-02-28T18:14:12;34.83;;;27.73;;
22060;SDS011;11194;48.092;-1.382;2023-02-28T18:16:38;36.97;;;23.02;;
22060;SDS011;11194;48.092;-1.382;2023-02-28T18:19:07;41.22;;;25.98;;
22060;SDS011;11194;48.092;-1.382;2023-02-28T18:24:52;35.90;;;22.42;;
22060;SDS011;11194;48.092;-1.382;2023-02-28T18:27:27;32.53;;;20.48;;
22060;SDS011;11194;48.092;-1.382;2023-02-28T18:29:53;31.42;;;18.02;;
22060;SDS011;11194;48.092;-1.382;2023-02-28T18:32:19;30.63;;;19.92;;
22060;SDS011;11194;48.092;-1.382;2023-02-28T18:34:45;32.20;;;19.95;;
22060;SDS011;11194;48.092;-1.382;2023-02-28T18:37:11;42.17;;;24.55;;
22060;SDS011;11194;48.092;-1.382;2023-02-28T18:39:37;43.53;;;23.98;;
22060;SDS011;11194;48.092;-1.382;2023-02-28T18:42:03;37.15;;;22.45;;
22060;SDS011;11194;48.092;-1.382;2023-02-28T18:44:29;35.20;;;20.70;;
22060;SDS011;11194;48.092;-1.382;2023-02-28T18:46:55;38.38;;;23.42;;
22060;SDS011;11194;48.092;-1.382;2023-02-28T18:49:21;42.38;;;25.15;;
22060;SDS011;11194;48.092;-1.382;2023-02-28T18:51:47;38.35;;;22.73;;
22060;SDS011;11194;48.092;-1.382;2023-02-28T18:54:14;47.08;;;26.98;;
22060;SDS011;11194;48.092;-1.382;2023-02-28T18:56:40;40.13;;;22.50;;
22060;SDS011;11194;48.092;-1.382;2023-02-28T18:59:06;42.72;;;21.95;;
22060;SDS011;11194;48.092;-1.382;2023-02-28T19:01:33;41.83;;;21.92;;
22060;SDS011;11194;48.092;-1.382;2023-02-28T19:03:59;32.15;;;20.13;;
22060;SDS011;11194;48.092;-1.382;2023-02-28T19:06:26;37.08;;;20.58;;
22060;SDS011;11194;48.092;-1.382;2023-02-28T19:08:54;67.45;;;36.25;;
22060;SDS011;11194;48.092;-1.382;2023-02-28T19:11:20;27.17;;;15.05;;
22060;SDS011;11194;48.092;-1.382;2023-02-28T19:13:46;29.33;;;18.02;;
22060;SDS011;11194;48.092;-1.382;2023-02-28T19:16:13;28.48;;;16.23;;
22060;SDS011;11194;48.092;-1.382;2023-02-28T19:18:40;29.23;;;16.38;;
22060;SDS011;11194;48.092;-1.382;2023-02-28T19:21:06;28.17;;;16.13;;
22060;SDS011;11194;48.092;-1.382;2023-02-28T19:23:34;29.95;;;16.80;;
22060;SDS011;11194;48.092;-1.382;2023-02-28T19:26:04;26.90;;;15.35;;
22060;SDS011;11194;48.092;-1.382;2023-02-28T19:28:30;26.35;;;15.43;;
22060;SDS011;11194;48.092;-1.382;2023-02-28T19:30:56;26.75;;;14.68;;
22060;SDS011;11194;48.092;-1.382;2023-02-28T19:33:22;28.67;;;15.50;;
22060;SDS011;11194;48.092;-1.382;2023-02-28T19:35:48;26.88;;;14.48;;
22060;SDS011;11194;48.092;-1.382;2023-02-28T19:38:14;27.25;;;15.43;;
22060;SDS011;11194;48.092;-1.382;2023-02-28T19:40:41;18.92;;;11.02;;
22060;SDS011;11194;48.092;-1.382;2023-02-28T19:43:07;21.90;;;12.20;;